createdAt,value
2022-11-26T00:02:22.558Z,35.18
2022-11-26T00:04:51.248Z,35.19
2022-11-26T00:07:22.528Z,35.34
2022-11-26T00:09:50.887Z,35.27
2022-11-26T00:12:21.931Z,35.57
2022-11-26T00:14:51.622Z,35.45
2022-11-26T00:17:20.386Z,35.42
2022-11-26T00:19:48.888Z,35.36
2022-11-26T00:22:24.453Z,34.45
2022-11-26T00:24:53.686Z,35.29
2022-11-26T00:27:22.652Z,35.34
2022-11-26T00:29:52.122Z,35.25
2022-11-26T00:32:23.733Z,34.94
2022-11-26T00:34:52.027Z,35.41
2022-11-26T00:37:22.533Z,35.01
2022-11-26T00:39:50.911Z,35.40
2022-11-26T00:42:19.756Z,35.16
2022-11-26T00:44:47.885Z,35.12
2022-11-26T00:47:17.616Z,34.94
2022-11-26T00:49:45.652Z,35.34
2022-11-26T00:52:23.791Z,34.37
2022-11-26T00:54:51.990Z,35.02
2022-11-26T00:57:20.397Z,35.10
2022-11-26T00:59:48.512Z,35.06
2022-11-26T01:02:18.178Z,35.19
2022-11-26T01:04:46.317Z,35.28
2022-11-26T01:07:14.795Z,35.17
2022-11-26T01:09:44.030Z,35.33
2022-11-26T01:12:14.028Z,35.36
2022-11-26T01:14:42.099Z,35.65
2022-11-26T01:17:12.466Z,35.23
2022-11-26T01:19:42.033Z,35.35
2022-11-26T01:22:20.987Z,34.72
2022-11-26T01:24:50.002Z,35.54
2022-11-26T01:27:20.904Z,35.39
2022-11-26T01:29:49.100Z,35.67
2022-11-26T01:32:17.456Z,35.89
2022-11-26T01:34:46.836Z,35.59
2022-11-26T01:37:15.523Z,35.50
2022-11-26T01:39:43.572Z,35.89
2022-11-26T01:42:23.238Z,35.15
2022-11-26T01:44:51.237Z,36.04
2022-11-26T01:47:23.292Z,35.80
2022-11-26T01:50:29.013Z,35.00
2022-11-26T01:53:02.516Z,35.62
2022-11-26T01:55:43.499Z,35.69
2022-11-26T01:58:14.486Z,35.98
2022-11-26T02:00:42.816Z,36.01
2022-11-26T02:03:11.539Z,36.21
2022-11-26T02:05:43.645Z,35.95
2022-11-26T02:08:13.782Z,36.03
2022-11-26T02:10:41.985Z,36.47
2022-11-26T02:13:10.373Z,36.75
2022-11-26T02:15:44.551Z,36.04
2022-11-26T02:18:13.343Z,36.33
2022-11-26T02:20:51.808Z,35.56
2022-11-26T02:23:43.640Z,35.29
2022-11-26T02:27:05.474Z,35.01
2022-11-26T02:29:51.635Z,35.16
2022-11-26T02:32:22.188Z,35.91
2022-11-26T02:34:56.060Z,35.45
2022-11-26T02:37:27.112Z,35.88
2022-11-26T02:39:55.274Z,34.74
2022-11-26T02:42:26.637Z,35.88
2022-11-26T02:44:59.096Z,35.88
2022-11-26T02:47:28.557Z,36.36
2022-11-26T02:49:58.636Z,36.33
2022-11-26T02:52:28.764Z,36.26
2022-11-26T02:54:58.422Z,36.62
2022-11-26T02:57:29.188Z,36.72
2022-11-26T02:59:59.179Z,36.68
2022-11-26T03:02:30.604Z,36.57
2022-11-26T03:05:01.619Z,36.66
2022-11-26T03:07:30.703Z,36.98
2022-11-26T03:10:00.715Z,36.66
2022-11-26T03:12:29.028Z,36.75
2022-11-26T03:14:59.050Z,36.60
2022-11-26T03:17:27.190Z,36.67
2022-11-26T03:19:55.608Z,36.85
2022-11-26T03:22:23.566Z,36.69
2022-11-26T03:24:51.941Z,36.80
2022-11-26T03:27:20.049Z,36.70
2022-11-26T03:29:48.496Z,36.68
2022-11-26T03:32:18.141Z,36.39
2022-11-26T03:34:46.658Z,36.72
2022-11-26T03:37:14.991Z,36.96
2022-11-26T03:39:43.515Z,36.52
2022-11-26T03:42:12.080Z,36.36
2022-11-26T03:44:40.750Z,36.64
2022-11-26T03:47:08.905Z,36.68
2022-11-26T03:49:38.785Z,36.40
2022-11-26T03:52:06.781Z,36.43
2022-11-26T03:54:35.383Z,36.57
2022-11-26T03:57:03.588Z,36.66
2022-11-26T03:59:32.003Z,36.60
2022-11-26T04:02:00.105Z,36.73
2022-11-26T04:04:28.438Z,36.61
2022-11-26T04:06:57.940Z,36.58
2022-11-26T04:09:26.398Z,36.94
2022-11-26T04:11:54.494Z,36.99
2022-11-26T04:14:23.264Z,36.87
2022-11-26T04:16:51.467Z,36.79
2022-11-26T04:19:19.965Z,36.99
2022-11-26T04:21:47.987Z,37.12
2022-11-26T04:24:17.825Z,36.88
2022-11-26T04:26:45.904Z,37.20
2022-11-26T04:29:14.327Z,37.22
2022-11-26T04:31:42.395Z,37.46
2022-11-26T04:34:11.071Z,37.55
2022-11-26T04:36:39.598Z,37.54
2022-11-26T04:39:08.084Z,37.56
2022-11-26T04:41:37.552Z,37.30
2022-11-26T04:44:06.286Z,37.37
2022-11-26T04:46:34.355Z,37.40
2022-11-26T04:49:02.623Z,37.40
2022-11-26T04:51:30.811Z,37.47
2022-11-26T04:54:02.759Z,37.46
2022-11-26T04:56:31.367Z,38.98
2022-11-26T04:59:01.126Z,38.17
2022-11-26T05:01:29.249Z,37.58
2022-11-26T05:03:57.806Z,37.26
2022-11-26T05:06:25.901Z,37.29
2022-11-26T05:08:54.334Z,37.18
2022-11-26T05:11:22.359Z,37.09
2022-11-26T05:13:50.756Z,36.98
2022-11-26T05:16:20.393Z,36.69
2022-11-26T05:18:48.723Z,36.75
2022-11-26T05:21:16.795Z,36.68
2022-11-26T05:23:45.137Z,36.91
2022-11-26T05:26:13.401Z,36.76
2022-11-26T05:28:41.710Z,36.75
2022-11-26T05:31:09.959Z,36.84
2022-11-26T05:33:39.788Z,36.69
2022-11-26T05:36:08.261Z,36.75
2022-11-26T05:38:36.583Z,36.75
2022-11-26T05:41:04.944Z,36.55
2022-11-26T05:43:33.325Z,36.69
2022-11-26T05:46:05.130Z,35.96
2022-11-26T05:48:33.585Z,36.38
2022-11-26T05:51:03.661Z,36.12
2022-11-26T05:53:31.998Z,36.40
2022-11-26T05:56:00.153Z,36.30
2022-11-26T05:58:28.495Z,36.52
2022-11-26T06:00:56.580Z,36.35
2022-11-26T06:03:25.117Z,35.84
2022-11-26T06:05:53.276Z,35.84
2022-11-26T06:08:23.041Z,35.51
2022-11-26T06:10:54.070Z,35.82
2022-11-26T06:13:22.602Z,36.06
2022-11-26T06:15:52.007Z,36.03
2022-11-26T06:18:20.360Z,36.04
2022-11-26T06:20:48.540Z,35.98
2022-11-26T06:23:17.009Z,35.82
2022-11-26T06:25:46.589Z,35.67
2022-11-26T06:28:15.114Z,35.48
2022-11-26T06:30:45.384Z,35.26
2022-11-26T06:33:13.767Z,35.67
2022-11-26T06:35:41.891Z,35.61
2022-11-26T06:38:10.399Z,35.67
2022-11-26T06:40:38.726Z,35.81
2022-11-26T06:43:08.583Z,35.41
2022-11-26T06:45:36.741Z,35.37
2022-11-26T06:48:05.313Z,35.55
2022-11-26T06:50:33.526Z,35.56
2022-11-26T06:53:01.975Z,35.25
2022-11-26T06:55:30.133Z,35.39
2022-11-26T06:57:58.557Z,35.10
2022-11-26T07:00:28.179Z,34.76
2022-11-26T07:02:56.510Z,34.90
2022-11-26T07:05:24.674Z,34.43
2022-11-26T07:07:53.128Z,34.58
2022-11-26T07:10:21.378Z,34.20
2022-11-26T07:12:49.672Z,34.29
2022-11-26T07:15:17.956Z,34.28
2022-11-26T07:17:47.616Z,34.21
2022-11-26T07:20:16.124Z,34.06
2022-11-26T07:22:44.659Z,34.03
2022-11-26T07:25:13.112Z,34.08
2022-11-26T07:27:41.815Z,34.09
2022-11-26T07:30:10.971Z,34.03
2022-11-26T07:32:39.492Z,33.68
2022-11-26T07:35:09.407Z,33.61
2022-11-26T07:37:37.808Z,33.87
2022-11-26T07:40:07.839Z,33.71
2022-11-26T07:42:36.445Z,33.72
2022-11-26T07:45:04.973Z,33.94
2022-11-26T07:47:33.476Z,34.02
2022-11-26T07:50:01.745Z,34.07
2022-11-26T07:52:31.564Z,33.86
2022-11-26T07:54:59.627Z,33.90
2022-11-26T07:57:28.032Z,34.15
2022-11-26T07:59:56.105Z,34.04
2022-11-26T08:02:24.703Z,34.07
2022-11-26T08:04:53.660Z,34.34
2022-11-26T08:07:26.123Z,34.17
2022-11-26T08:09:58.484Z,34.01
2022-11-26T08:12:27.397Z,34.34
2022-11-26T08:14:55.387Z,33.97
2022-11-26T08:17:23.756Z,34.34
2022-11-26T08:19:51.819Z,34.45
2022-11-26T08:22:20.290Z,33.82
2022-11-26T08:24:48.363Z,33.30
2022-11-26T08:27:18.584Z,33.23
2022-11-26T08:29:46.709Z,33.42
2022-11-26T08:32:15.114Z,33.41
2022-11-26T08:34:43.380Z,33.33
2022-11-26T08:37:11.682Z,33.44
2022-11-26T08:39:40.128Z,33.87
2022-11-26T08:42:08.473Z,33.77
2022-11-26T08:44:38.196Z,33.90
2022-11-26T08:47:06.750Z,34.53
2022-11-26T08:49:34.793Z,34.56
2022-11-26T08:52:03.279Z,34.59
2022-11-26T08:54:31.358Z,34.75
2022-11-26T08:56:59.864Z,35.13
2022-11-26T08:59:27.910Z,35.37
2022-11-26T09:01:57.685Z,35.21
2022-11-26T09:04:28.472Z,35.26
2022-11-26T09:06:56.984Z,35.36
2022-11-26T09:09:25.383Z,35.23
2022-11-26T09:11:55.151Z,35.69
2022-11-26T09:14:25.697Z,35.61
2022-11-26T09:16:54.736Z,35.77
2022-11-26T09:19:25.247Z,35.72
2022-11-26T09:21:53.589Z,36.00
2022-11-26T09:24:23.172Z,35.92
2022-11-26T09:26:51.504Z,36.27
2022-11-26T09:29:21.673Z,36.30
2022-11-26T09:32:21.257Z,36.34
2022-11-26T09:34:40.423Z,36.15
2022-11-26T09:37:09.193Z,36.49
2022-11-26T09:39:37.211Z,36.19
2022-11-26T09:42:07.276Z,36.22
2022-11-26T09:44:51.150Z,35.33
2022-11-26T09:47:22.383Z,36.05
2022-11-26T09:50:01.108Z,35.46
2022-11-26T09:52:32.197Z,35.48
2022-11-26T09:55:06.974Z,35.37
2022-11-26T09:57:41.351Z,35.79
2022-11-26T10:00:21.840Z,35.40
2022-11-26T10:02:53.543Z,35.76
2022-11-26T10:05:24.992Z,35.67
2022-11-26T10:08:04.472Z,35.16
2022-11-26T10:10:39.859Z,35.42
2022-11-26T10:13:19.436Z,35.11
2022-11-26T10:15:56.315Z,34.87
2022-11-26T10:18:34.221Z,34.81
2022-11-26T10:21:13.961Z,35.03
2022-11-26T10:23:45.608Z,35.52
2022-11-26T10:26:14.076Z,34.02
2022-11-26T10:28:46.602Z,35.29
2022-11-26T10:31:21.154Z,35.47
2022-11-26T10:33:56.079Z,35.13
2022-11-26T10:36:27.828Z,35.65
2022-11-26T10:38:57.370Z,36.33
2022-11-26T10:41:28.142Z,35.46
2022-11-26T10:43:56.460Z,35.68
2022-11-26T10:46:35.556Z,35.16
2022-11-26T10:49:18.046Z,34.81
2022-11-26T10:51:49.560Z,35.61
2022-11-26T10:54:29.835Z,35.34
2022-11-26T10:57:03.693Z,35.40
2022-11-26T10:59:36.551Z,35.21
2022-11-26T11:02:14.148Z,35.36
2022-11-26T11:04:46.158Z,35.46
2022-11-26T11:07:32.824Z,34.76
2022-11-26T11:10:06.539Z,35.26
2022-11-26T11:12:34.776Z,35.66
2022-11-26T11:15:22.046Z,34.64
2022-11-26T11:17:57.021Z,35.11
2022-11-26T11:20:31.205Z,35.29
2022-11-26T11:23:04.253Z,35.50
2022-11-26T11:25:34.484Z,35.88
2022-11-26T11:28:11.770Z,35.52
2022-11-26T11:30:42.293Z,35.64
2022-11-26T11:33:13.152Z,35.70
2022-11-26T11:35:41.828Z,35.72
2022-11-26T11:38:23.676Z,35.00
2022-11-26T11:40:52.301Z,35.68
2022-11-26T11:43:22.693Z,35.55
2022-11-26T11:46:15.075Z,34.76
2022-11-26T11:48:51.715Z,34.74
2022-11-26T11:51:26.031Z,34.98
2022-11-26T11:54:03.858Z,34.98
2022-11-26T11:56:36.702Z,35.19
2022-11-26T11:59:18.056Z,34.75
2022-11-26T12:02:05.049Z,34.45
2022-11-26T12:04:52.242Z,34.58
2022-11-26T12:07:33.165Z,35.08
2022-11-26T12:10:08.047Z,34.90
2022-11-26T12:12:38.089Z,35.43
2022-11-26T12:15:10.037Z,35.08
2022-11-26T12:17:41.536Z,35.33
2022-11-26T12:20:21.254Z,34.57
2022-11-26T12:22:53.065Z,35.22
2022-11-26T12:25:33.554Z,34.85
2022-11-26T12:28:07.067Z,34.97
2022-11-26T12:30:42.069Z,34.85
2022-11-26T12:33:16.182Z,34.68
2022-11-26T12:35:47.169Z,35.13
2022-11-26T12:38:20.178Z,34.71
2022-11-26T12:40:54.269Z,34.31
2022-11-26T12:43:27.905Z,34.47
2022-11-26T12:45:59.838Z,34.76
2022-11-26T12:48:42.813Z,34.08
2022-11-26T12:51:21.353Z,33.91
2022-11-26T12:53:53.761Z,33.97
2022-11-26T12:56:27.255Z,33.80
2022-11-26T12:59:00.980Z,33.43
2022-11-26T13:01:29.619Z,33.76
2022-11-26T13:04:21.609Z,33.91
2022-11-26T13:06:56.276Z,32.82
2022-11-26T13:09:36.294Z,33.03
2022-11-26T13:12:10.962Z,32.53
2022-11-26T13:14:43.219Z,32.85
2022-11-26T13:17:14.080Z,32.74
2022-11-26T13:19:45.000Z,32.39
2022-11-26T13:22:34.491Z,31.79
2022-11-26T13:25:20.987Z,31.99
2022-11-26T13:27:56.697Z,32.09
2022-11-26T13:30:27.852Z,32.72
2022-11-26T13:33:28.938Z,32.20
2022-11-26T13:36:17.027Z,32.06
2022-11-26T13:38:53.233Z,32.66
2022-11-26T13:41:27.993Z,33.13
2022-11-26T13:44:21.943Z,32.45
2022-11-26T13:46:52.412Z,33.54
2022-11-26T13:49:25.785Z,33.12
2022-11-26T13:51:57.064Z,33.21
2022-11-26T13:54:28.280Z,33.38
2022-11-26T13:57:00.034Z,33.25
2022-11-26T13:59:29.317Z,32.32
2022-11-26T14:01:57.932Z,33.39
2022-11-26T14:04:54.783Z,32.49
2022-11-26T14:07:23.683Z,33.61
2022-11-26T14:09:54.580Z,33.53
2022-11-26T14:12:24.136Z,33.59
2022-11-26T14:14:53.838Z,33.97
2022-11-26T14:17:28.972Z,33.63
2022-11-26T14:20:07.409Z,34.09
2022-11-26T14:22:37.060Z,34.17
2022-11-26T14:25:08.118Z,34.00
2022-11-26T14:27:37.007Z,32.91
2022-11-26T14:30:28.223Z,33.24
2022-11-26T14:33:05.774Z,33.89
2022-11-26T14:35:35.997Z,34.39
2022-11-26T14:38:05.830Z,34.63
2022-11-26T14:40:35.982Z,34.25
2022-11-26T14:43:09.269Z,33.94
2022-11-26T14:45:38.826Z,34.59
2022-11-26T14:48:07.295Z,34.82
2022-11-26T14:50:37.528Z,34.32
2022-11-26T14:53:07.858Z,34.32
2022-11-26T14:55:36.248Z,34.55
2022-11-26T14:58:09.579Z,34.65
2022-11-26T15:00:39.526Z,34.60
2022-11-26T15:03:20.578Z,33.98
2022-11-26T15:05:48.793Z,34.92
2022-11-26T15:08:19.407Z,34.84
2022-11-26T15:10:51.225Z,34.36
2022-11-26T15:13:25.767Z,34.41
2022-11-26T15:15:56.635Z,34.44
2022-11-26T15:18:32.214Z,34.42
2022-11-26T15:21:02.062Z,34.91
2022-11-26T15:23:32.951Z,34.75
2022-11-26T15:26:01.430Z,35.13
2022-11-26T15:28:30.097Z,35.16
2022-11-26T15:31:01.285Z,35.02
2022-11-26T15:33:32.128Z,34.66
2022-11-26T15:36:00.414Z,34.81
2022-11-26T15:38:30.425Z,34.68
2022-11-26T15:41:02.032Z,34.26
2022-11-26T15:43:31.966Z,34.32
2022-11-26T15:46:03.811Z,34.34
2022-11-26T15:48:51.656Z,34.10
2022-11-26T15:51:24.942Z,34.10
2022-11-26T15:53:53.464Z,34.60
2022-11-26T15:56:24.215Z,34.59
2022-11-26T15:58:55.448Z,34.34
2022-11-26T16:01:28.325Z,34.02
2022-11-26T16:03:57.562Z,34.38
2022-11-26T16:06:31.674Z,34.10
2022-11-26T16:09:03.407Z,34.40
2022-11-26T16:11:34.480Z,34.72
2022-11-26T16:14:24.799Z,34.00
2022-11-26T16:16:54.449Z,34.60
2022-11-26T16:19:23.113Z,35.02
2022-11-26T16:21:52.357Z,34.76
2022-11-26T16:24:29.557Z,34.15
2022-11-26T16:26:58.956Z,35.25
2022-11-26T16:29:28.010Z,35.06
2022-11-26T16:31:57.887Z,35.22
2022-11-26T16:34:28.015Z,35.02
2022-11-26T16:37:01.964Z,34.72
2022-11-26T16:39:33.789Z,35.26
2022-11-26T16:42:09.804Z,35.09
2022-11-26T16:44:38.692Z,35.32
2022-11-26T16:47:11.246Z,34.80
2022-11-26T16:49:39.816Z,35.34
2022-11-26T16:52:12.624Z,35.02
2022-11-26T16:54:41.324Z,35.07
2022-11-26T16:57:13.598Z,34.53
2022-11-26T16:59:43.063Z,34.81
2022-11-26T17:02:17.754Z,33.89
2022-11-26T17:04:46.942Z,34.62
2022-11-26T17:07:16.917Z,34.74
2022-11-26T17:09:45.532Z,34.35
2022-11-26T17:12:17.510Z,33.97
2022-11-26T17:14:46.661Z,34.51
2022-11-26T17:17:20.522Z,34.00
2022-11-26T17:19:52.292Z,34.23
2022-11-26T17:22:20.346Z,34.04
2022-11-26T17:24:50.923Z,33.84
2022-11-26T17:27:21.132Z,34.05
2022-11-26T17:29:49.846Z,33.92
2022-11-26T17:32:20.584Z,33.87
2022-11-26T17:34:49.122Z,34.13
2022-11-26T17:37:23.815Z,33.76
2022-11-26T17:39:52.454Z,33.98
2022-11-26T17:42:21.871Z,34.06
2022-11-26T17:44:50.473Z,34.13
2022-11-26T17:47:21.414Z,33.69
2022-11-26T17:49:50.371Z,33.99
2022-11-26T17:52:18.798Z,33.93
2022-11-26T17:54:47.812Z,33.86
2022-11-26T17:57:16.840Z,33.86
2022-11-26T17:59:46.015Z,33.88
2022-11-26T18:02:14.317Z,33.95
2022-11-26T18:04:44.119Z,33.74
2022-11-26T18:07:14.756Z,33.84
2022-11-26T18:09:43.594Z,33.91
2022-11-26T18:12:23.186Z,33.40
2022-11-26T18:14:53.605Z,33.78
2022-11-26T18:17:22.144Z,33.81
2022-11-26T18:19:52.470Z,33.78
2022-11-26T18:22:23.020Z,33.64
2022-11-26T18:24:57.044Z,33.78
2022-11-26T18:27:27.860Z,33.79
2022-11-26T18:29:56.315Z,33.79
2022-11-26T18:32:24.547Z,33.64
2022-11-26T18:34:54.342Z,33.38
2022-11-26T18:37:22.570Z,33.32
2022-11-26T18:39:50.968Z,33.46
2022-11-26T18:45:10.210Z,33.34
2022-11-26T18:47:38.786Z,33.50
2022-11-26T18:50:10.132Z,33.31
2022-11-26T18:52:38.928Z,34.04
2022-11-26T18:55:08.836Z,33.87
2022-11-26T18:57:37.082Z,33.94
2022-11-26T19:00:07.181Z,33.82
2022-11-26T19:02:36.226Z,33.91
2022-11-26T19:05:04.892Z,33.93
2022-11-26T19:07:34.976Z,33.68
2022-11-26T19:10:03.193Z,33.95
2022-11-26T19:12:31.876Z,34.17
2022-11-26T19:15:00.028Z,34.15
2022-11-26T19:17:28.492Z,34.09
2022-11-26T19:19:56.637Z,34.29
2022-11-26T19:22:25.079Z,34.06
2022-11-26T19:24:54.706Z,34.01
2022-11-26T19:27:23.161Z,34.12
2022-11-26T19:29:51.453Z,33.94
2022-11-26T19:32:20.183Z,33.93
2022-11-26T19:34:48.220Z,33.93
2022-11-26T19:37:16.858Z,33.65
2022-11-26T19:39:45.185Z,33.82
2022-11-26T19:42:15.935Z,33.62
2022-11-26T19:44:44.162Z,33.64
2022-11-26T19:47:12.723Z,33.87
2022-11-26T19:49:41.134Z,33.67
2022-11-26T19:52:09.952Z,33.68
2022-11-26T19:54:38.099Z,33.67
2022-11-26T19:57:07.300Z,33.68
2022-11-26T19:59:37.165Z,33.32
2022-11-26T20:02:06.397Z,33.33
2022-11-26T20:04:34.528Z,33.71
2022-11-26T20:07:03.292Z,33.68
2022-11-26T20:09:31.506Z,33.61
2022-11-26T20:12:00.149Z,33.51
2022-11-26T20:14:28.559Z,33.33
2022-11-26T20:17:01.063Z,33.36
2022-11-26T20:19:29.979Z,33.33
2022-11-26T20:22:01.515Z,33.06
2022-11-26T20:24:30.064Z,33.14
2022-11-26T20:27:00.904Z,32.91
2022-11-26T20:29:29.176Z,32.96
2022-11-26T20:31:59.835Z,33.30
2022-11-26T20:34:30.062Z,33.05
2022-11-26T20:36:58.676Z,33.28
2022-11-26T20:39:28.794Z,32.99
2022-11-26T20:41:57.383Z,32.79
2022-11-26T20:44:26.979Z,32.99
2022-11-26T20:46:57.417Z,32.89
2022-11-26T20:49:32.203Z,32.91
2022-11-26T20:52:02.964Z,32.80
2022-11-26T20:54:31.551Z,32.91
2022-11-26T20:57:00.492Z,32.84
2022-11-26T20:59:29.114Z,32.71
2022-11-26T21:01:58.158Z,33.11
2022-11-26T21:04:28.737Z,32.72
2022-11-26T21:06:57.910Z,32.91
2022-11-26T21:09:26.313Z,33.04
2022-11-26T21:11:54.820Z,33.19
2022-11-26T21:14:22.975Z,33.10
2022-11-26T21:16:53.952Z,33.07
2022-11-26T21:19:22.247Z,33.07
2022-11-26T21:21:52.286Z,33.08
2022-11-26T21:24:21.521Z,32.87
2022-11-26T21:26:50.033Z,33.09
2022-11-26T21:29:18.273Z,33.07
2022-11-26T21:31:46.722Z,33.14
2022-11-26T21:34:15.793Z,33.10
2022-11-26T21:36:45.159Z,33.44
2022-11-26T21:39:16.777Z,32.71
2022-11-26T21:41:45.641Z,33.13
2022-11-26T21:44:13.924Z,33.36
2022-11-26T21:46:42.385Z,33.11
2022-11-26T21:49:10.836Z,33.28
2022-11-26T21:51:39.490Z,32.97
2022-11-26T21:54:07.723Z,32.93
2022-11-26T21:56:38.641Z,32.61
2022-11-26T21:59:06.755Z,32.80
2022-11-26T22:01:37.276Z,32.25
2022-11-26T22:04:11.835Z,31.96
2022-11-26T22:06:40.575Z,32.51
2022-11-26T22:09:09.532Z,32.62
2022-11-26T22:11:42.274Z,31.90
2022-11-26T22:14:12.819Z,32.02
2022-11-26T22:16:41.386Z,31.94
2022-11-26T22:19:09.999Z,31.94
2022-11-26T22:21:40.611Z,31.39
2022-11-26T22:24:11.532Z,31.23
2022-11-26T22:26:41.508Z,31.16
2022-11-26T22:29:11.499Z,30.80
2022-11-26T22:31:40.118Z,30.56
2022-11-26T22:34:11.233Z,30.31
2022-11-26T22:36:40.762Z,30.33
2022-11-26T22:39:12.306Z,30.11
2022-11-26T22:41:43.236Z,30.45
2022-11-26T22:44:12.048Z,30.42
2022-11-26T22:46:40.386Z,30.40
2022-11-26T22:49:11.569Z,30.47
2022-11-26T22:51:39.891Z,28.96
2022-11-26T22:54:09.605Z,29.92
2022-11-26T22:56:39.050Z,30.16
2022-11-26T22:59:11.789Z,30.08
2022-11-26T23:01:40.211Z,30.46
2022-11-26T23:04:09.941Z,30.42
2022-11-26T23:06:38.885Z,30.40
2022-11-26T23:09:08.853Z,30.41
2022-11-26T23:11:39.072Z,30.63
2022-11-26T23:14:12.089Z,30.52
2022-11-26T23:16:42.459Z,30.50
2022-11-26T23:19:11.380Z,30.67
2022-11-26T23:21:41.814Z,30.43
2022-11-26T23:24:10.232Z,30.69
2022-11-26T23:26:39.925Z,30.18
2022-11-26T23:29:09.884Z,30.42
2022-11-26T23:31:41.099Z,30.45
2022-11-26T23:34:10.366Z,30.85
2022-11-26T23:36:39.425Z,30.58
2022-11-26T23:39:08.731Z,30.91
2022-11-26T23:41:37.832Z,31.01
2022-11-26T23:44:06.353Z,31.04
2022-11-26T23:46:36.537Z,30.65
2022-11-26T23:49:05.237Z,30.63
2022-11-26T23:51:34.442Z,30.55
2022-11-26T23:54:02.508Z,30.74
2022-11-26T23:56:34.710Z,30.43
2022-11-26T23:59:04.424Z,30.77
